Terminal Aerodrome Forecast
Issued by NWS

Home | Current Version | Previous Version | Text Only | Print | Product List | Glossary On
Versions: 1 2 3 4 5 6 7 8 9 10 11 12 13 14 15 16 17
000
FTUS46 KPDT 231120
TAFPSC
TAF
KPSC 231120Z 2312/2412 VRB04KT P6SM SKC
     FM231600 21009KT P6SM BKN250
     FM232100 22011KT P6SM OVC120
     FM240100 23012KT 5SM -SN OVC035
     FM240700 23012KT P6SM OVC050=

USA.gov is the U.S. government's official web portal to all federal, state and local government web resources and services.